Latest Weather Observations for Yamba

IDN60801

Issued at 6:02 am EST Sunday 29 May 2016 (issued every 30 minutes, with the page automatically refreshed every 10 minutes)

About weather observations | Map of weather stations | Latest weather observations for NSW | Other Formats
Station Details ID: 058012 Name: YAMBA PILOT STATION Lat: -29.43 Lon: 153.36 Height: 27.4 m
Data from the previous 72 hours. | See also: Recent months at Yamba
Date/Time
EST
Temp
°C
App
Temp
°C
Dew
Point
Rel
Hum
%
Delta-T
°C
Wind Press
QNH
hPa
Press
MSL
hPa
Rain
since 9 am
mm
Dir
 
Spd
km/h
Gust
km/h
Spd
kts
Gust
kts
29/06:00am 11.2 7.9 4.4 63 3.1 W 11 20 6 11 1016.0 1015.9 0.0
29/05:30am 11.5 7.6 5.4 66 2.8 W 15 20 8 11 1015.8 1015.7 0.0
29/05:00am 11.1 7.2 5.4 68 2.6 W 15 20 8 11 1015.5 1015.4 0.0
29/04:30am 11.5 7.5 4.9 64 3.0 W 15 24 8 13 1015.1 1015.0 0.0
29/04:00am 11.8 7.4 4.5 61 3.3 W 17 24 9 13 1015.0 1014.9 0.0
29/03:30am 11.9 7.3 3.7 57 3.7 W 17 26 9 14 1014.9 1014.8 0.0
29/03:00am 12.0 7.8 4.0 58 3.6 WNW 15 20 8 11 1014.7 1014.6 0.0
29/02:30am 12.3 8.0 3.5 55 3.9 W 15 22 8 12 1014.7 1014.6 0.0
29/02:00am 12.0 9.0 5.9 66 2.9 WNW 11 17 6 9 1014.6 1014.5 0.0
29/01:30am 11.5 8.6 4.7 63 3.1 W 9 13 5 7 1014.6 1014.5 0.0
29/01:00am 12.2 8.9 4.4 59 3.5 W 11 15 6 8 1014.3 1014.2 0.0
29/12:30am 12.0 9.1 4.7 61 3.3 W 9 13 5 7 1014.2 1014.1 0.0
29/12:00am 12.3 9.8 5.0 61 3.4 SW 7 13 4 7 1014.0 1013.9 0.0
 
Date/Time
EST
Temp
°C
App
Temp
°C
Dew
Point
Rel
Hum
%
Delta-T
°C
Wind Press
QNH
hPa
Press
MSL
hPa
Rain
since 9 am
mm
Dir
 
Spd
km/h
Gust
km/h
Spd
kts
Gust
kts
28/11:30pm 13.2 9.9 2.7 49 4.6 WSW 9 13 5 7 1013.7 1013.6 0.0
28/11:00pm 12.9 10.0 2.7 50 4.5 WSW 7 11 4 6 1013.7 1013.6 0.0
28/10:30pm 13.2 11.8 3.8 53 4.2 CALM 0 6 0 3 1013.8 1013.7 0.0
28/10:00pm 14.2 11.3 2.5 45 5.2 SW 7 13 4 7 1013.6 1013.5 0.0
28/09:30pm 14.9 10.9 2.8 44 5.4 W 13 20 7 11 1013.0 1012.9 0.0
28/09:00pm 15.5 12.1 2.0 40 6.0 WSW 9 17 5 9 1013.0 1012.9 0.0
28/08:30pm 16.5 12.1 2.5 39 6.3 W 15 28 8 15 1012.1 1012.1 0.0
28/08:00pm 16.8 11.4 2.4 38 6.5 W 20 32 11 17 1011.9 1011.9 0.0
28/07:30pm 16.8 11.3 1.7 36 6.7 W 20 33 11 18 1011.6 1011.6 0.0
28/07:00pm 17.0 11.5 1.8 36 6.8 W 20 39 11 21 1011.1 1011.1 0.0
28/06:30pm 17.6 12.2 2.4 36 6.9 W 20 32 11 17 1011.0 1011.0 0.0
28/06:00pm 18.2 11.9 1.7 33 7.4 W 24 44 13 24 1010.4 1010.4 0.0
28/05:44pm 18.6 11.6 2.0 33 7.6 W 28 56 15 30 1010.0 1010.0 0.0
28/05:30pm 18.3 12.9 2.6 35 7.2 W 20 33 11 18 1009.9 1009.9 0.0
28/05:00pm 18.4 13.8 3.8 38 6.9 W 17 26 9 14 1009.4 1009.4 0.0
28/04:30pm 19.5 14.2 3.2 34 7.7 W 20 35 11 19 1008.9 1008.9 0.0
28/04:00pm 20.1 14.9 3.3 33 8.0 WNW 20 35 11 19 1008.4 1008.4 0.0
28/03:30pm 21.0 14.5 2.8 30 8.6 WNW 26 41 14 22 1007.8 1007.8 0.0
28/03:16pm 21.2 14.3 2.5 29 8.8 WNW 28 46 15 25 1007.8 1007.8 0.0
28/03:00pm 21.7 15.8 3.9 31 8.6 WNW 24 41 13 22 1007.7 1007.7 0.0
28/02:30pm 20.6 13.5 3.8 33 8.0 WNW 30 50 16 27 1007.6 1007.6 0.0
28/02:09pm 22.3 15.9 5.3 33 8.5 WNW 28 46 15 25 1007.4 1007.4 0.0
28/02:00pm 22.2 16.4 4.3 31 8.8 WNW 24 43 13 23 1007.3 1007.3 0.0
28/01:30pm 22.0 17.0 6.3 36 8.0 WNW 22 39 12 21 1007.7 1007.7 0.0
28/01:00pm 21.1 17.4 6.2 38 7.5 NW 15 28 8 15 1008.4 1008.4 0.0
28/12:30pm 21.4 18.0 5.7 36 7.8 NW 13 26 7 14 1008.9 1008.9 0.0
28/12:00pm 20.6 17.2 4.2 34 7.9 NW 11 19 6 10 1009.4 1009.4 0.0
28/11:30am 20.6 16.9 4.2 34 7.9 NW 13 17 7 9 1009.8 1009.8 0.0
28/11:00am 20.2 16.9 4.3 35 7.7 NW 11 19 6 10 1010.2 1010.2 0.0
28/10:30am 19.6 16.4 4.9 38 7.1 NW 11 19 6 10 1010.9 1010.9 0.0
28/10:00am 19.1 16.4 7.5 47 5.9 NW 11 20 6 11 1011.4 1011.4 0.0
28/09:30am 17.6 15.2 7.1 50 5.3 NW 9 15 5 8 1011.7 1011.7 0.0
28/09:00am 15.8 13.1 7.3 57 4.2 NW 11 17 6 9 1011.8 1011.8 0.0
28/08:30am 14.7 11.8 8.0 64 3.3 NW 13 17 7 9 1011.6 1011.6 0.0
28/08:00am 13.2 10.5 7.2 67 2.9 NW 11 17 6 9 1011.8 1011.8 0.0
28/07:30am 12.7 9.5 6.7 67 2.9 NW 13 22 7 12 1011.5 1011.5 0.0
28/07:00am 11.0 7.6 6.0 71 2.3 WNW 13 20 7 11 1011.1 1011.1 0.0
28/06:30am 10.3 7.7 5.9 74 2.0 NW 9 13 5 7 1010.8 1010.8 0.0
28/06:00am 10.3 7.9 5.1 70 2.4 W 7 9 4 5 1010.6 1010.6 0.0
28/05:30am 10.6 8.2 5.4 70 2.4 WNW 7 11 4 6 1010.7 1010.7 0.0
28/05:00am 11.3 8.9 5.4 67 2.7 W 7 11 4 6 1010.3 1010.3 0.0
28/04:30am 11.5 9.5 6.2 70 2.5 W 6 9 3 5 1010.1 1010.1 0.0
28/04:00am 12.0 9.6 5.4 64 3.1 W 7 7 4 4 1010.1 1010.1 0.0
28/03:30am 11.9 9.7 5.3 64 3.0 WSW 6 7 3 4 1010.2 1010.2 0.0
28/03:00am 12.2 10.0 6.3 67 2.8 WSW 7 11 4 6 1010.3 1010.3 0.0
28/02:30am 12.4 10.6 7.1 70 2.6 WNW 6 7 3 4 1010.2 1010.2 0.0
28/02:00am 12.3 10.1 6.1 66 2.9 WNW 7 11 4 6 1010.2 1010.2 0.0
28/01:30am 13.0 10.0 6.1 63 3.3 WNW 11 17 6 9 1010.1 1010.1 0.0
28/01:00am 12.7 10.0 5.4 61 3.4 W 9 13 5 7 1010.0 1010.0 0.0
28/12:30am 13.3 10.1 5.2 58 3.8 W 11 13 6 7 1009.9 1009.9 0.0
28/12:00am 14.2 11.0 5.0 54 4.3 WSW 11 17 6 9 1010.0 1010.0 0.0
 
Date/Time
EST
Temp
°C
App
Temp
°C
Dew
Point
Rel
Hum
%
Delta-T
°C
Wind Press
QNH
hPa
Press
MSL
hPa
Rain
since 9 am
mm
Dir
 
Spd
km/h
Gust
km/h
Spd
kts
Gust
kts
27/11:30pm 14.7 11.9 3.2 46 5.2 WSW 7 13 4 7 1010.1 1010.1 0.0
27/11:00pm 14.3 11.6 3.5 48 4.9 WSW 7 13 4 7 1010.0 1010.0 0.0
27/10:30pm 14.1 11.5 3.0 47 5.0 WSW 6 9 3 5 1010.0 1010.0 0.0
27/10:00pm 14.9 12.1 3.1 45 5.3 WSW 7 13 4 7 1009.2 1009.2 0.0
27/09:30pm 14.9 12.1 5.1 52 4.6 W 9 13 5 7 1009.0 1009.0 0.0
27/09:00pm 15.1 12.4 3.6 46 5.3 WSW 7 11 4 6 1009.0 1009.0 0.0
27/08:30pm 16.3 12.8 3.4 42 5.9 W 11 17 6 9 1008.5 1008.5 0.0
27/08:00pm 16.0 13.4 5.9 51 4.9 WNW 9 15 5 8 1008.3 1008.3 0.0
27/07:30pm 15.7 12.4 4.7 48 5.2 WNW 11 15 6 8 1007.7 1007.7 0.0
27/07:00pm 17.1 13.6 3.4 40 6.4 W 11 19 6 10 1007.1 1007.1 0.0
27/06:30pm 18.0 13.7 3.1 37 6.9 WNW 15 22 8 12 1006.6 1006.6 0.0
27/06:00pm 18.4 13.8 3.8 38 6.9 WNW 17 24 9 13 1006.1 1006.1 0.0
27/05:30pm 19.1 15.0 4.1 37 7.1 W 15 20 8 11 1005.6 1005.6 0.0
27/05:00pm 20.1 15.4 3.3 33 8.0 WNW 17 26 9 14 1005.2 1005.2 0.0
27/04:30pm 21.2 16.5 3.4 31 8.5 WNW 17 30 9 16 1004.6 1004.6 0.0
27/04:00pm 22.1 17.0 4.2 31 8.8 WNW 20 33 11 18 1003.9 1003.9 0.0
27/03:30pm 23.1 17.1 3.6 28 9.5 WNW 24 41 13 22 1003.7 1003.7 0.0
27/03:00pm 23.7 18.4 5.1 30 9.4 WNW 22 35 12 19 1003.3 1003.3 0.0
27/02:30pm 23.9 18.7 5.3 30 9.4 W 22 33 12 18 1003.2 1003.2 0.0
27/02:00pm 23.8 18.2 5.2 30 9.4 WNW 24 43 13 23 1003.2 1003.2 0.0
27/01:30pm 23.8 17.8 5.2 30 9.4 W 26 43 14 23 1003.2 1003.2 0.0
27/01:22pm 23.7 17.3 5.1 30 9.3 W 28 48 15 26 1003.4 1003.4 0.0
27/01:00pm 23.7 18.6 6.0 32 9.1 W 22 41 12 22 1003.8 1003.8 0.0
27/12:30pm 23.5 19.1 7.2 35 8.5 WNW 20 35 11 19 1004.0 1004.0 0.0
27/12:00pm 23.2 19.6 9.9 43 7.3 WNW 19 28 10 15 1004.3 1004.3 0.0
27/11:30am 21.4 17.4 10.3 49 6.0 WNW 22 33 12 18 1004.8 1004.8 0.0
27/11:00am 21.7 19.7 12.8 57 5.1 WNW 15 24 8 13 1005.3 1005.3 0.0
27/10:30am 21.0 19.1 12.9 60 4.6 NW 15 24 8 13 1005.7 1005.7 0.0
27/10:00am 20.5 19.6 14.8 70 3.4 NW 13 22 7 12 1006.2 1006.2 0.0
27/09:30am 18.7 17.6 14.2 75 2.6 NW 13 20 7 11 1006.3 1006.3 0.0
27/09:00am 18.2 17.1 14.3 78 2.3 NW 13 20 7 11 1006.6 1006.6 3.8
27/08:30am 17.9 15.9 13.8 77 2.3 WNW 17 24 9 13 1006.2 1006.2 3.8
27/08:00am 17.5 15.1 12.8 74 2.6 WNW 17 22 9 12 1006.1 1006.1 3.8
27/07:30am 16.9 16.4 14.9 88 1.2 NW 11 17 6 9 1005.7 1005.7 3.8
27/07:00am 16.5 17.2 16.2 98 0.2 NNW 7 13 4 7 1005.5 1005.5 3.8
27/06:30am 16.8 17.2 16.2 96 0.4 NNW 9 13 5 7 1004.9 1004.9 3.8
27/06:00am 16.8 16.8 15.3 91 0.9 NW 9 20 5 11 1005.0 1005.0 3.8
27/05:30am 17.0 17.6 16.7 98 0.2 NW 9 17 5 9 1004.6 1004.6 3.8
27/05:00am 17.2 17.1 16.9 98 0.2 NW 13 17 7 9 1004.7 1004.7 3.8
27/04:30am 17.4 17.7 17.1 98 0.2 NW 11 17 6 9 1004.4 1004.4 3.8
27/04:00am 17.4 17.7 17.1 98 0.2 NW 11 20 6 11 1004.1 1004.1 3.8
27/03:30am 17.5 17.5 17.2 98 0.2 NW 13 19 7 10 1004.1 1004.1 3.8
27/03:00am 17.6 17.6 17.3 98 0.2 NW 13 20 7 11 1004.4 1004.4 3.6
27/02:30am 17.3 16.8 17.0 98 0.2 WNW 15 22 8 12 1004.7 1004.7 3.6
27/02:00am 17.0 16.4 16.7 98 0.2 NW 15 24 8 13 1004.2 1004.2 3.6
27/01:30am 16.7 16.0 16.4 98 0.2 NW 15 22 8 12 1003.8 1003.8 3.6
27/01:00am 16.6 15.9 16.3 98 0.2 NW 15 24 8 13 1004.1 1004.1 3.6
27/12:30am 16.6 16.2 16.3 98 0.2 NW 13 22 7 12 1004.5 1004.5 3.6
27/12:00am 16.5 16.1 16.2 98 0.2 NNW 13 19 7 10 1004.7 1004.7 3.6
 
Date/Time
EST
Temp
°C
App
Temp
°C
Dew
Point
Rel
Hum
%
Delta-T
°C
Wind Press
QNH
hPa
Press
MSL
hPa
Rain
since 9 am
mm
Dir
 
Spd
km/h
Gust
km/h
Spd
kts
Gust
kts
26/11:30pm 16.8 16.5 16.5 98 0.2 NNW 13 22 7 12 1005.1 1005.1 3.6
26/11:00pm 17.0 17.6 16.7 98 0.2 N 9 17 5 9 1005.6 1005.6 3.4
26/10:30pm 15.8 15.1 15.5 98 0.2 NNW 13 20 7 11 1006.2 1006.2 3.0
26/10:00pm 15.8 16.0 14.8 94 0.6 W 7 11 4 6 1007.8 1007.8 2.2
26/09:30pm 16.4 16.0 15.3 93 0.6 WSW 11 15 6 8 1008.1 1008.1 1.8
26/09:00pm 16.5 16.2 14.3 87 1.3 SSW 9 13 5 7 1007.4 1007.4 1.8
26/08:30pm 17.5 16.8 14.2 81 1.9 SW 11 19 6 10 1007.8 1007.8 0.6
26/08:00pm 17.9 16.8 14.2 79 2.1 SW 13 17 7 9 1007.0 1007.0 0.2
26/07:30pm 19.6 20.4 12.6 64 3.9 CALM 0 0 0 0 1006.4 1006.4 0.2
26/07:00pm 18.1 18.8 15.5 85 1.5 NNW 6 7 3 4 1006.8 1006.8 0.2
26/06:30pm 18.5 18.3 14.8 79 2.2 W 9 13 5 7 1007.1 1007.1 0.2
26/06:00pm 19.9 19.7 15.7 77 2.5 SW 11 15 6 8 1006.7 1006.7 0.0
26/05:30pm 21.2 22.8 16.8 76 2.7 E 4 7 2 4 1006.1 1006.1 0.0
26/05:00pm 21.1 22.0 16.1 73 3.0 NE 6 7 3 4 1005.6 1005.6 0.0
26/04:30pm 21.2 22.6 15.3 69 3.5 S 2 7 1 4 1005.9 1005.9 0.0
26/04:00pm 21.4 22.1 15.5 69 3.5 S 6 9 3 5 1006.2 1006.2 0.0
26/03:30pm 21.7 23.3 16.0 70 3.4 WSW 2 9 1 5 1006.3 1006.3 0.0
26/03:00pm 22.2 23.3 17.1 73 3.1 N 7 17 4 9 1006.1 1006.1 0.0
26/02:30pm 22.7 23.6 17.6 73 3.2 N 9 17 5 9 1005.9 1005.9 0.0
26/02:00pm 22.0 21.5 14.9 64 4.2 NNE 11 15 6 8 1006.3 1006.3 0.0
26/01:30pm 22.0 21.4 13.6 59 4.9 NNE 9 15 5 8 1006.7 1006.7 0.0
26/01:00pm 21.7 20.8 12.5 56 5.2 N 9 15 5 8 1007.1 1007.1 0.0
26/12:30pm 21.8 21.4 12.4 55 5.3 N 6 13 3 7 1008.0 1008.0 0.0
26/12:00pm 23.3 22.1 11.7 48 6.5 NNW 9 17 5 9 1008.9 1008.9 0.0
26/11:30am 23.6 21.9 9.9 42 7.5 NNW 9 19 5 10 1009.7 1009.7 0.0
26/11:00am 23.9 20.9 5.8 31 9.2 NNW 11 19 6 10 1010.7 1010.7 0.0
26/10:30am 22.1 19.0 7.1 38 7.7 NNW 13 20 7 11 1011.5 1011.5 0.0
26/10:00am 21.6 18.5 7.1 39 7.5 NNW 13 20 7 11 1011.9 1011.9 0.0
26/09:30am 18.3 15.9 8.8 54 4.9 NNW 11 17 6 9 1012.3 1012.3 0.0
26/09:00am 16.8 14.6 9.2 61 3.9 NW 11 17 6 9 1012.8 1012.7 0.0
26/08:30am 15.7 12.8 8.2 61 3.8 NW 13 19 7 10 1013.0 1012.9 0.0
26/08:00am 15.2 12.1 8.9 66 3.2 NW 15 22 8 12 1013.2 1013.1 0.0
26/07:30am 14.3 11.5 8.5 68 2.9 NW 13 19 7 10 1012.9 1012.8 0.0
26/07:00am 14.7 12.0 8.9 68 3.0 NW 13 20 7 11 1012.9 1012.8 0.0
26/06:30am 14.1 10.9 8.5 69 2.8 NNW 15 20 8 11 1012.7 1012.6 0.0

Other Formats:

Comma delimited format used in spreadsheet applications
http://www.bom.gov.au/fwo/IDN60801/IDN60801.94589.axf

JavaScript Object Notation format (JSON) in row-major order
http://www.bom.gov.au/fwo/IDN60801/IDN60801.94589.json